createdAt,value
2022-12-16T00:00:03.676Z,90.47
2022-12-16T00:01:03.515Z,90.58
2022-12-16T00:02:04.289Z,90.79
2022-12-16T00:03:04.044Z,90.68
2022-12-16T00:04:04.237Z,90.58
2022-12-16T00:05:03.743Z,90.04
2022-12-16T00:06:04.088Z,89.61
2022-12-16T00:07:03.415Z,89.18
2022-12-16T00:08:03.602Z,88.97
2022-12-16T00:09:03.235Z,89.29
2022-12-16T00:10:03.826Z,89.72
2022-12-16T00:11:03.172Z,89.83
2022-12-16T00:12:03.531Z,89.08
2022-12-16T00:13:08.894Z,88.87
2022-12-16T00:14:03.847Z,88.97
2022-12-16T00:15:03.794Z,88.65
2022-12-16T00:16:03.789Z,88.23
2022-12-16T00:17:03.743Z,88.44
2022-12-16T00:18:03.653Z,88.65
2022-12-16T00:19:03.697Z,88.76
2022-12-16T00:20:03.596Z,88.65
2022-12-16T00:21:03.576Z,88.76
2022-12-16T00:22:03.186Z,88.65
2022-12-16T00:23:03.387Z,87.90
2022-12-16T00:24:03.274Z,87.59
2022-12-16T00:25:03.179Z,87.69
2022-12-16T00:26:03.480Z,88.01
2022-12-16T00:27:02.673Z,88.23
2022-12-16T00:28:03.084Z,88.23
2022-12-16T00:29:03.046Z,87.59
2022-12-16T00:30:02.497Z,87.16
2022-12-16T00:31:03.167Z,87.26
2022-12-16T00:32:02.978Z,87.26
2022-12-16T00:33:02.844Z,87.48
2022-12-16T00:34:03.311Z,87.05
2022-12-16T00:35:02.812Z,86.41
2022-12-16T00:36:02.851Z,86.34
2022-12-16T00:37:03.439Z,86.55
2022-12-16T00:38:03.493Z,86.66
2022-12-16T00:39:03.304Z,86.66
2022-12-16T00:40:02.846Z,86.66
2022-12-16T00:41:03.224Z,86.55
2022-12-16T00:42:03.348Z,86.55
2022-12-16T00:43:03.465Z,86.55
2022-12-16T00:44:03.760Z,86.55
2022-12-16T00:45:03.199Z,86.55
2022-12-16T00:46:03.468Z,87.02
2022-12-16T00:47:03.087Z,87.30
2022-12-16T00:48:02.994Z,86.98
2022-12-16T00:49:02.826Z,86.80
2022-12-16T00:50:02.905Z,87.13
2022-12-16T00:51:03.175Z,87.45
2022-12-16T00:52:03.412Z,87.55
2022-12-16T00:53:03.251Z,87.66
2022-12-16T00:54:03.571Z,87.13
2022-12-16T00:55:03.070Z,86.87
2022-12-16T00:56:03.661Z,86.70
2022-12-16T00:57:02.762Z,86.44
2022-12-16T00:58:02.921Z,86.38
2022-12-16T00:59:02.784Z,86.59
2022-12-16T01:00:02.864Z,86.80
2022-12-16T01:01:02.486Z,86.80
2022-12-16T01:02:03.761Z,86.70
2022-12-16T01:03:03.759Z,86.91
2022-12-16T01:04:03.404Z,87.02
2022-12-16T01:05:03.462Z,87.23
2022-12-16T01:06:03.987Z,87.45
2022-12-16T01:07:04.438Z,87.13
2022-12-16T01:08:03.996Z,87.13
2022-12-16T01:09:04.324Z,87.55
2022-12-16T01:10:04.369Z,87.34
2022-12-16T01:11:04.415Z,87.02
2022-12-16T01:12:03.462Z,87.02
2022-12-16T01:13:03.314Z,87.23
2022-12-16T01:14:03.708Z,87.49
2022-12-16T01:15:03.530Z,87.49
2022-12-16T01:16:03.791Z,88.02
2022-12-16T01:17:04.130Z,88.34
2022-12-16T01:18:04.057Z,88.34
2022-12-16T01:19:04.049Z,88.56
2022-12-16T01:20:03.845Z,88.45
2022-12-16T01:21:04.001Z,88.56
2022-12-16T01:22:04.169Z,88.98
2022-12-16T01:23:04.242Z,89.34
2022-12-16T01:24:04.388Z,89.67
2022-12-16T01:25:04.037Z,89.77
2022-12-16T01:26:04.478Z,89.67
2022-12-16T01:27:03.508Z,89.88
2022-12-16T01:28:03.363Z,90.03
2022-12-16T01:29:03.443Z,90.13
2022-12-16T01:30:03.654Z,90.34
2022-12-16T01:31:03.788Z,90.78
2022-12-16T01:32:04.189Z,91.27
2022-12-16T01:33:03.664Z,91.16
2022-12-16T01:34:04.004Z,91.06
2022-12-16T01:35:03.736Z,90.84
2022-12-16T01:36:04.210Z,90.95
2022-12-16T01:37:03.466Z,91.16
2022-12-16T01:38:03.592Z,91.49
2022-12-16T01:39:03.446Z,91.80
2022-12-16T01:40:03.347Z,92.02
2022-12-16T01:41:02.966Z,92.23
2022-12-16T01:42:04.172Z,92.66
2022-12-16T01:43:04.309Z,92.88
2022-12-16T01:44:03.880Z,93.30
2022-12-16T01:45:03.551Z,93.52
2022-12-16T01:46:03.740Z,93.62
2022-12-16T01:47:03.004Z,93.48
2022-12-16T01:48:03.251Z,93.48
2022-12-16T01:49:03.261Z,93.48
2022-12-16T01:50:03.484Z,93.37
2022-12-16T01:51:03.172Z,93.05
2022-12-16T01:52:03.401Z,92.94
2022-12-16T01:53:02.900Z,92.79
2022-12-16T01:56:03.422Z,91.87
2022-12-16T01:57:03.443Z,91.87
2022-12-16T01:58:03.200Z,92.08
2022-12-16T01:59:03.408Z,91.66
2022-12-16T02:00:02.940Z,91.12
2022-12-16T02:01:02.885Z,91.23
2022-12-16T02:02:04.059Z,91.23
2022-12-16T02:03:03.619Z,90.69
2022-12-16T02:04:03.825Z,90.48
2022-12-16T02:05:03.371Z,90.48
2022-12-16T02:06:03.419Z,90.16
2022-12-16T02:07:03.726Z,90.01
2022-12-16T02:08:03.915Z,89.80
2022-12-16T02:09:03.575Z,89.48
2022-12-16T02:10:03.670Z,89.26
2022-12-16T02:14:03.988Z,89.05
2022-12-16T02:15:04.180Z,88.62
2022-12-16T02:16:04.146Z,88.73
2022-12-16T02:17:03.515Z,88.41
2022-12-16T02:18:03.859Z,88.20
2022-12-16T02:19:03.267Z,88.41
2022-12-16T02:20:04.242Z,88.30
2022-12-16T02:21:03.906Z,87.77
2022-12-16T02:22:04.276Z,87.55
2022-12-16T02:23:03.820Z,87.92
2022-12-16T02:24:04.245Z,88.23
2022-12-16T02:25:04.235Z,88.34
2022-12-16T02:26:04.131Z,88.02
2022-12-16T02:29:03.480Z,88.23
2022-12-16T02:30:03.369Z,88.34
2022-12-16T02:31:03.400Z,88.34
2022-12-16T02:32:03.440Z,88.45
2022-12-16T02:33:03.442Z,88.66
2022-12-16T02:34:02.966Z,89.09
2022-12-16T02:35:03.161Z,88.45
2022-12-16T02:36:02.895Z,88.49
2022-12-16T02:37:03.791Z,88.70
2022-12-16T02:38:03.395Z,88.56
2022-12-16T02:39:03.806Z,88.13
2022-12-16T02:40:03.696Z,87.63
2022-12-16T02:41:03.217Z,87.74
2022-12-16T02:42:03.033Z,88.17
2022-12-16T02:43:02.590Z,88.28
2022-12-16T02:46:02.663Z,88.13
2022-12-16T02:47:02.932Z,88.02
2022-12-16T02:48:03.065Z,87.70
2022-12-16T02:49:03.385Z,87.70
2022-12-16T02:50:02.918Z,87.70
2022-12-16T02:51:03.046Z,87.81
2022-12-16T02:52:03.113Z,87.92
2022-12-16T02:53:03.059Z,87.92
2022-12-16T02:54:03.091Z,87.81
2022-12-16T02:55:03.238Z,87.59
2022-12-16T02:56:03.414Z,86.99
2022-12-16T02:57:02.962Z,86.77
2022-12-16T02:58:02.989Z,86.88
2022-12-16T02:59:02.564Z,86.88
2022-12-16T03:00:02.480Z,86.67
2022-12-16T03:03:04.703Z,86.56
2022-12-16T03:04:04.791Z,86.71
2022-12-16T03:05:04.959Z,87.31
2022-12-16T03:06:05.010Z,87.31
2022-12-16T03:07:04.587Z,87.10
2022-12-16T03:08:04.707Z,86.67
2022-12-16T03:09:04.825Z,86.67
2022-12-16T03:10:04.442Z,86.67
2022-12-16T03:11:04.911Z,86.46
2022-12-16T03:12:03.721Z,86.71
2022-12-16T03:13:04.205Z,86.49
2022-12-16T03:14:03.738Z,86.49
2022-12-16T03:15:03.613Z,86.82
2022-12-16T03:16:04.223Z,86.71
2022-12-16T03:19:23.248Z,87.24
2022-12-16T03:20:03.719Z,87.46
2022-12-16T03:21:03.793Z,87.35
2022-12-16T03:22:04.619Z,87.24
2022-12-16T03:23:04.335Z,87.24
2022-12-16T03:24:04.608Z,87.46
2022-12-16T03:25:04.201Z,87.56
2022-12-16T03:26:04.303Z,87.56
2022-12-16T03:27:03.519Z,87.46
2022-12-16T03:28:03.682Z,87.46
2022-12-16T03:29:03.417Z,87.67
2022-12-16T03:30:03.623Z,87.78
2022-12-16T03:31:03.946Z,87.46
2022-12-16T03:32:03.541Z,87.35
2022-12-16T03:33:03.679Z,87.13
2022-12-16T03:36:03.669Z,87.71
2022-12-16T03:37:03.770Z,87.78
2022-12-16T03:38:03.967Z,87.60
2022-12-16T03:39:03.916Z,87.60
2022-12-16T03:40:03.710Z,87.71
2022-12-16T03:41:04.207Z,87.92
2022-12-16T03:42:03.795Z,87.82
2022-12-16T03:43:03.890Z,87.49
2022-12-16T03:44:04.147Z,87.28
2022-12-16T03:45:04.068Z,87.49
2022-12-16T03:46:03.635Z,87.82
2022-12-16T03:47:04.135Z,88.03
2022-12-16T03:48:04.243Z,87.82
2022-12-16T03:49:04.388Z,87.49
2022-12-16T03:50:04.534Z,87.28
2022-12-16T03:53:03.365Z,87.07
2022-12-16T03:54:03.756Z,87.03
2022-12-16T03:55:03.529Z,86.53
2022-12-16T03:56:03.294Z,86.21
2022-12-16T03:57:03.221Z,86.10
2022-12-16T03:58:03.323Z,86.00
2022-12-16T03:59:03.027Z,86.53
2022-12-16T04:00:03.127Z,86.32
2022-12-16T04:01:03.523Z,86.43
2022-12-16T04:02:03.867Z,86.53
2022-12-16T04:03:04.271Z,86.74
2022-12-16T04:04:03.990Z,86.96
2022-12-16T04:05:03.462Z,86.85
2022-12-16T04:06:03.824Z,86.74
2022-12-16T04:07:04.066Z,86.74
2022-12-16T04:10:04.027Z,86.68
2022-12-16T04:11:03.846Z,87.10
2022-12-16T04:12:04.111Z,87.43
2022-12-16T04:13:04.244Z,87.54
2022-12-16T04:14:04.192Z,87.54
2022-12-16T04:15:04.236Z,87.54
2022-12-16T04:16:04.202Z,87.85
2022-12-16T04:17:04.302Z,88.00
2022-12-16T04:18:04.327Z,88.43
2022-12-16T04:19:04.185Z,88.75
2022-12-16T04:20:04.398Z,88.93
2022-12-16T04:21:03.968Z,88.71
2022-12-16T04:22:03.383Z,88.60
2022-12-16T04:23:03.085Z,88.29
2022-12-16T04:24:03.444Z,87.79
2022-12-16T04:26:28.788Z,88.58
2022-12-16T04:27:03.842Z,89.18
2022-12-16T04:28:04.156Z,89.29
2022-12-16T04:29:04.117Z,89.29
2022-12-16T04:30:03.914Z,88.96
2022-12-16T04:31:03.887Z,88.71
2022-12-16T04:32:03.575Z,88.54
2022-12-16T04:33:03.528Z,88.32
2022-12-16T04:34:03.401Z,88.21
2022-12-16T04:35:03.295Z,88.43
2022-12-16T04:36:03.177Z,88.54
2022-12-16T04:37:03.928Z,88.65
2022-12-16T04:38:03.703Z,88.96
2022-12-16T04:39:03.918Z,88.96
2022-12-16T04:40:04.043Z,88.86
2022-12-16T04:43:15.877Z,89.14
2022-12-16T04:44:03.314Z,88.60
2022-12-16T04:45:03.160Z,88.00
2022-12-16T04:46:03.520Z,88.21
2022-12-16T04:47:03.384Z,88.43
2022-12-16T04:48:03.267Z,88.54
2022-12-16T04:49:02.998Z,88.54
2022-12-16T04:50:02.864Z,88.54
2022-12-16T04:51:02.997Z,88.50
2022-12-16T04:52:03.809Z,88.29
2022-12-16T04:53:04.010Z,88.29
2022-12-16T04:54:03.397Z,88.29
2022-12-16T04:55:03.831Z,88.29
2022-12-16T04:56:04.882Z,88.54
2022-12-16T04:57:03.190Z,88.86
2022-12-16T05:00:02.667Z,90.36
2022-12-16T05:01:03.243Z,90.53
2022-12-16T05:02:03.869Z,90.43
2022-12-16T05:03:04.040Z,90.58
2022-12-16T05:04:04.118Z,90.86
2022-12-16T05:05:04.129Z,91.18
2022-12-16T05:06:03.740Z,91.28
2022-12-16T05:07:02.900Z,91.39
2022-12-16T05:08:03.340Z,91.39
2022-12-16T05:09:03.472Z,91.28
2022-12-16T05:10:03.387Z,90.86
2022-12-16T05:11:02.804Z,90.53
2022-12-16T05:12:03.932Z,90.32
2022-12-16T05:13:03.790Z,90.32
2022-12-16T05:14:03.992Z,90.53
2022-12-16T05:15:03.563Z,90.86
2022-12-16T05:16:03.924Z,90.75
2022-12-16T05:17:03.825Z,90.11
2022-12-16T05:18:04.212Z,89.75
2022-12-16T05:19:03.620Z,89.32
2022-12-16T05:20:04.040Z,89.42
2022-12-16T05:21:04.109Z,89.75
2022-12-16T05:22:04.336Z,90.06
2022-12-16T05:23:03.684Z,89.85
2022-12-16T05:24:03.888Z,89.39
2022-12-16T05:25:03.997Z,89.06
2022-12-16T05:26:04.069Z,88.64
2022-12-16T05:27:03.205Z,88.31
2022-12-16T05:28:03.281Z,87.88
2022-12-16T05:29:02.913Z,88.21
2022-12-16T05:30:02.747Z,88.85
2022-12-16T05:33:03.460Z,88.95
2022-12-16T05:34:03.313Z,89.17
2022-12-16T05:35:03.291Z,89.28
2022-12-16T05:36:03.635Z,89.49
2022-12-16T05:37:03.811Z,89.88
2022-12-16T05:38:03.333Z,89.98
2022-12-16T05:39:03.224Z,89.98
2022-12-16T05:40:03.650Z,90.20
2022-12-16T05:41:03.178Z,90.63
2022-12-16T05:42:02.948Z,91.49
2022-12-16T05:43:02.713Z,92.23
2022-12-16T05:44:02.712Z,92.66
2022-12-16T05:45:02.693Z,93.41
2022-12-16T05:46:02.631Z,93.73
2022-12-16T05:47:03.298Z,94.01
2022-12-16T05:48:02.869Z,94.23
2022-12-16T05:49:02.786Z,94.12
2022-12-16T05:50:03.111Z,94.01
2022-12-16T05:51:03.048Z,93.65
2022-12-16T05:52:02.362Z,93.65
2022-12-16T05:53:02.937Z,93.76
2022-12-16T05:54:02.408Z,93.97
2022-12-16T05:55:02.647Z,94.07
2022-12-16T05:56:02.599Z,94.07
2022-12-16T05:57:03.091Z,93.71
2022-12-16T05:58:03.091Z,93.82
2022-12-16T05:59:03.229Z,93.29
2022-12-16T06:00:03.392Z,93.18
2022-12-16T06:01:02.838Z,93.29
2022-12-16T06:02:04.443Z,93.60
2022-12-16T06:03:04.490Z,93.82
2022-12-16T06:04:04.017Z,94.24
2022-12-16T06:05:04.238Z,94.78
2022-12-16T06:06:04.041Z,95.42
2022-12-16T06:07:04.619Z,95.53
2022-12-16T06:08:04.252Z,95.70
2022-12-16T06:09:03.726Z,95.81
2022-12-16T06:10:04.141Z,95.92
2022-12-16T06:11:03.704Z,95.70
2022-12-16T06:12:04.514Z,95.55
2022-12-16T06:13:04.108Z,95.38
2022-12-16T06:14:04.245Z,95.59
2022-12-16T06:15:04.497Z,95.81
2022-12-16T06:16:08.683Z,95.92
2022-12-16T06:17:04.570Z,95.81
2022-12-16T06:18:04.086Z,95.76
2022-12-16T06:19:04.095Z,95.76
2022-12-16T06:20:03.921Z,95.45
2022-12-16T06:21:04.110Z,95.45
2022-12-16T06:22:03.529Z,95.23
2022-12-16T06:23:03.962Z,95.45
2022-12-16T06:24:03.716Z,95.55
2022-12-16T06:25:03.838Z,94.91
2022-12-16T06:26:03.739Z,94.81
2022-12-16T06:27:03.497Z,94.81
2022-12-16T06:28:03.830Z,94.55
2022-12-16T06:29:04.015Z,94.23
2022-12-16T06:30:04.018Z,94.01
2022-12-16T06:31:03.601Z,93.70
2022-12-16T06:32:03.671Z,93.91
2022-12-16T06:33:03.920Z,94.12
2022-12-16T06:34:03.591Z,94.23
2022-12-16T06:35:03.616Z,94.23
2022-12-16T06:36:04.108Z,93.59
2022-12-16T06:37:03.677Z,93.59
2022-12-16T06:38:03.642Z,93.70
2022-12-16T06:39:03.602Z,93.70
2022-12-16T06:40:03.534Z,94.01
2022-12-16T06:41:03.706Z,93.70
2022-12-16T06:42:03.714Z,93.48
2022-12-16T06:43:03.802Z,93.27
2022-12-16T06:44:04.183Z,93.59
2022-12-16T06:45:04.227Z,93.91
2022-12-16T06:46:04.300Z,94.23
2022-12-16T06:47:03.898Z,94.08
2022-12-16T06:48:03.630Z,93.23
2022-12-16T06:49:03.585Z,93.12
2022-12-16T06:50:03.766Z,92.80
2022-12-16T06:51:03.873Z,92.27
2022-12-16T06:52:04.038Z,92.27
2022-12-16T06:53:04.422Z,92.30
2022-12-16T06:54:03.860Z,92.63
2022-12-16T06:55:03.862Z,93.16
2022-12-16T06:56:04.249Z,93.70
2022-12-16T06:57:03.470Z,94.06
2022-12-16T06:58:08.150Z,94.48
2022-12-16T06:59:03.036Z,94.70
2022-12-16T07:00:03.002Z,94.55
2022-12-16T07:01:03.245Z,94.44
2022-12-16T07:02:04.024Z,94.34
2022-12-16T07:03:04.742Z,94.34
2022-12-16T07:04:03.933Z,94.12
2022-12-16T07:05:04.184Z,94.01
2022-12-16T07:06:03.713Z,93.91
2022-12-16T07:07:03.755Z,93.63
2022-12-16T07:08:04.084Z,93.52
2022-12-16T07:09:03.841Z,93.74
2022-12-16T07:10:03.693Z,93.95
2022-12-16T07:11:15.966Z,94.17
2022-12-16T07:12:04.425Z,94.17
2022-12-16T07:13:04.037Z,93.95
2022-12-16T07:14:04.177Z,93.84
2022-12-16T07:15:04.180Z,93.63
2022-12-16T07:16:04.059Z,93.59
2022-12-16T07:17:03.997Z,93.16
2022-12-16T07:18:04.239Z,92.52
2022-12-16T07:19:04.234Z,92.20
2022-12-16T07:20:03.945Z,91.60
2022-12-16T07:21:04.053Z,91.92
2022-12-16T07:22:03.188Z,91.88
2022-12-16T07:23:11.012Z,91.99
2022-12-16T07:24:03.105Z,91.03
2022-12-16T07:25:03.475Z,90.64
2022-12-16T07:26:02.973Z,91.06
2022-12-16T07:27:03.347Z,91.39
2022-12-16T07:28:03.094Z,90.64
2022-12-16T07:29:03.682Z,90.85
2022-12-16T07:30:03.641Z,90.75
2022-12-16T07:31:03.084Z,90.11
2022-12-16T07:32:03.752Z,90.21
2022-12-16T07:33:03.593Z,90.32
2022-12-16T07:34:03.293Z,90.42
2022-12-16T07:35:03.559Z,90.00
2022-12-16T07:36:03.471Z,89.57
2022-12-16T07:37:03.832Z,89.36
2022-12-16T07:38:03.483Z,89.57
2022-12-16T07:39:03.645Z,89.36
2022-12-16T07:40:03.683Z,89.47
2022-12-16T07:41:03.519Z,89.25
2022-12-16T07:42:03.640Z,88.93
2022-12-16T07:43:04.084Z,88.61
2022-12-16T07:44:03.900Z,88.72
2022-12-16T07:45:03.983Z,88.82
2022-12-16T07:46:03.692Z,88.72
2022-12-16T07:47:03.172Z,88.61
2022-12-16T07:48:02.841Z,88.61
2022-12-16T07:49:02.870Z,88.61
2022-12-16T07:50:03.176Z,88.18
2022-12-16T07:51:03.346Z,88.18
2022-12-16T07:52:03.497Z,88.18
2022-12-16T07:53:03.502Z,87.87
2022-12-16T07:54:03.812Z,87.97
2022-12-16T07:55:03.341Z,87.97
2022-12-16T07:56:03.276Z,87.87
2022-12-16T07:57:02.987Z,87.69
2022-12-16T07:58:02.814Z,88.01
2022-12-16T07:59:03.018Z,88.33
2022-12-16T08:00:03.096Z,88.12
2022-12-16T08:01:08.981Z,88.23
2022-12-16T08:02:04.086Z,88.44
2022-12-16T08:03:04.611Z,88.54
2022-12-16T08:04:04.077Z,88.90
2022-12-16T08:05:04.083Z,89.01
2022-12-16T08:06:04.456Z,89.33
2022-12-16T08:07:04.081Z,89.59
2022-12-16T08:08:03.547Z,90.01
2022-12-16T08:09:03.387Z,90.66
2022-12-16T08:10:03.890Z,91.15
2022-12-16T08:11:03.430Z,90.94
2022-12-16T08:12:04.089Z,90.51
2022-12-16T08:13:04.360Z,90.61
2022-12-16T08:14:04.287Z,90.79
2022-12-16T08:15:04.105Z,90.47
2022-12-16T08:16:04.287Z,90.19
2022-12-16T08:17:04.614Z,90.30
2022-12-16T08:18:04.369Z,90.68
2022-12-16T08:19:10.499Z,90.68
2022-12-16T08:20:04.306Z,90.42
2022-12-16T08:21:04.272Z,90.32
2022-12-16T08:22:03.627Z,90.06
2022-12-16T08:23:03.275Z,89.42
2022-12-16T08:24:03.714Z,89.32
2022-12-16T08:25:03.713Z,89.00
2022-12-16T08:26:03.225Z,88.96
2022-12-16T08:27:03.686Z,88.96
2022-12-16T08:28:03.306Z,88.43
2022-12-16T08:29:34.712Z,88.21
2022-12-16T08:30:03.382Z,88.10
2022-12-16T08:31:03.389Z,88.10
2022-12-16T08:32:04.365Z,87.46
2022-12-16T08:33:14.996Z,87.40
2022-12-16T08:34:04.214Z,88.00
2022-12-16T08:35:04.012Z,88.21
2022-12-16T08:36:04.260Z,88.10
2022-12-16T08:37:04.047Z,88.00
2022-12-16T08:38:07.636Z,87.74
2022-12-16T08:39:03.827Z,87.36
2022-12-16T08:40:34.740Z,87.36
2022-12-16T08:41:04.051Z,87.04
2022-12-16T08:42:03.272Z,86.93
2022-12-16T08:43:07.872Z,87.04
2022-12-16T08:44:02.927Z,87.46
2022-12-16T08:45:02.957Z,87.36
2022-12-16T08:46:03.387Z,87.36
2022-12-16T08:47:03.535Z,87.00
2022-12-16T08:48:03.407Z,86.90
2022-12-16T08:49:03.785Z,87.00
2022-12-16T08:50:03.730Z,86.90
2022-12-16T08:51:03.416Z,86.79
2022-12-16T08:52:03.129Z,86.93
2022-12-16T08:53:02.782Z,87.15
2022-12-16T08:54:02.654Z,87.25
2022-12-16T08:55:03.262Z,87.43
2022-12-16T08:56:02.723Z,87.32
2022-12-16T08:57:03.251Z,87.53
2022-12-16T08:58:03.218Z,87.74
2022-12-16T08:59:03.588Z,87.64
2022-12-16T09:00:03.432Z,87.43
2022-12-16T09:01:07.411Z,87.21
2022-12-16T09:02:04.338Z,87.18
2022-12-16T09:03:04.689Z,87.18
2022-12-16T09:04:04.332Z,87.49
2022-12-16T09:05:04.036Z,87.38
2022-12-16T09:06:04.035Z,87.07
2022-12-16T09:07:04.574Z,86.96
2022-12-16T09:08:04.834Z,87.07
2022-12-16T09:09:04.534Z,87.18
2022-12-16T09:10:04.676Z,87.60
2022-12-16T09:11:04.696Z,87.92
2022-12-16T09:12:03.940Z,87.99
2022-12-16T09:13:03.943Z,87.99
2022-12-16T09:14:03.473Z,87.77
2022-12-16T09:15:03.563Z,87.77
2022-12-16T09:16:03.874Z,87.66
2022-12-16T09:17:04.340Z,87.46
2022-12-16T09:18:04.165Z,87.77
2022-12-16T09:19:04.192Z,88.20
2022-12-16T09:20:03.891Z,87.99
2022-12-16T09:21:04.047Z,87.77
2022-12-16T09:22:04.587Z,87.56
2022-12-16T09:23:04.506Z,87.63
2022-12-16T09:24:04.416Z,87.95
2022-12-16T09:25:04.695Z,87.84
2022-12-16T09:26:04.726Z,88.16
2022-12-16T09:27:04.587Z,87.95
2022-12-16T09:28:04.344Z,87.95
2022-12-16T09:29:04.713Z,88.27
2022-12-16T09:30:04.633Z,88.59
2022-12-16T09:31:04.560Z,89.01
2022-12-16T09:32:03.999Z,88.87
2022-12-16T09:33:04.113Z,88.55
2022-12-16T09:34:03.706Z,88.59
2022-12-16T09:35:06.259Z,89.01
2022-12-16T09:36:03.783Z,89.65
2022-12-16T09:37:04.283Z,89.83
2022-12-16T09:38:04.166Z,89.93
2022-12-16T09:39:03.738Z,89.93
2022-12-16T09:40:03.955Z,90.14
2022-12-16T09:41:03.720Z,90.00
2022-12-16T09:42:03.930Z,89.78
2022-12-16T09:43:03.424Z,89.68
2022-12-16T09:44:04.001Z,89.68
2022-12-16T09:45:03.400Z,89.68
2022-12-16T09:46:03.511Z,89.75
2022-12-16T09:47:08.334Z,90.06
2022-12-16T09:48:03.983Z,90.28
2022-12-16T09:49:03.636Z,90.23
2022-12-16T09:50:03.839Z,90.34
2022-12-16T09:51:03.686Z,90.77
2022-12-16T09:52:03.582Z,91.19
2022-12-16T09:53:03.241Z,91.25
2022-12-16T09:54:03.066Z,91.58
2022-12-16T09:55:03.155Z,91.89
2022-12-16T09:56:03.226Z,91.96
2022-12-16T09:57:03.778Z,92.38
2022-12-16T09:58:03.337Z,92.60
2022-12-16T09:59:03.489Z,92.55
2022-12-16T10:00:03.289Z,92.87
2022-12-16T10:01:03.483Z,93.15
2022-12-16T10:02:04.850Z,93.04
2022-12-16T10:03:07.011Z,93.00
2022-12-16T10:04:04.501Z,93.11
2022-12-16T10:05:04.526Z,93.07
2022-12-16T10:06:04.437Z,93.17
2022-12-16T10:07:04.295Z,92.71
2022-12-16T10:08:04.143Z,92.49
2022-12-16T10:09:04.322Z,92.29
2022-12-16T10:10:04.153Z,92.43
2022-12-16T10:11:03.784Z,93.02
2022-12-16T10:12:04.575Z,93.13
2022-12-16T10:13:03.933Z,94.04
2022-12-16T10:14:04.121Z,93.51
2022-12-16T10:15:04.400Z,93.57
2022-12-16T10:16:04.599Z,93.89
2022-12-16T10:17:04.858Z,92.94
2022-12-16T10:18:04.382Z,92.58
2022-12-16T10:19:04.457Z,93.38
2022-12-16T10:20:09.142Z,93.60
2022-12-16T10:21:04.811Z,92.82
2022-12-16T10:22:03.628Z,92.50
2022-12-16T10:23:04.010Z,92.07
2022-12-16T10:24:03.710Z,91.13
2022-12-16T10:25:03.622Z,91.19
2022-12-16T10:26:04.026Z,91.93
2022-12-16T10:27:03.632Z,91.36
2022-12-16T10:28:03.664Z,90.83
2022-12-16T10:29:04.038Z,91.46
2022-12-16T10:30:03.655Z,91.21
2022-12-16T10:31:04.082Z,91.21
2022-12-16T10:32:04.192Z,91.06
2022-12-16T10:33:03.827Z,91.49
2022-12-16T10:34:03.710Z,92.08
2022-12-16T10:35:03.805Z,89.76
2022-12-16T10:36:03.470Z,89.44
2022-12-16T10:37:08.853Z,88.39
2022-12-16T10:38:03.426Z,89.34
2022-12-16T10:39:03.750Z,89.82
2022-12-16T10:40:03.561Z,89.36
2022-12-16T10:41:03.714Z,89.15
2022-12-16T10:42:03.897Z,89.32
2022-12-16T10:43:03.253Z,89.53
2022-12-16T10:44:03.597Z,88.75
2022-12-16T10:45:03.266Z,87.91
2022-12-16T10:46:03.712Z,87.60
2022-12-16T10:47:03.646Z,86.86
2022-12-16T10:48:04.224Z,86.29
2022-12-16T10:49:03.857Z,86.93
2022-12-16T10:50:03.836Z,88.25
2022-12-16T10:51:03.952Z,88.57
2022-12-16T10:52:08.917Z,86.74
2022-12-16T10:53:04.439Z,85.06
2022-12-16T10:54:04.070Z,84.01
2022-12-16T10:55:04.159Z,84.22
2022-12-16T10:56:04.348Z,83.59
2022-12-16T10:57:04.272Z,84.53
2022-12-16T10:58:03.800Z,83.69
2022-12-16T10:59:03.265Z,83.41
2022-12-16T11:00:03.228Z,84.25
2022-12-16T11:01:03.466Z,84.99
2022-12-16T11:02:03.221Z,84.89
2022-12-16T11:03:04.151Z,85.41
2022-12-16T11:04:03.910Z,84.67
2022-12-16T11:05:04.193Z,85.79
2022-12-16T11:06:03.504Z,84.64
2022-12-16T11:07:03.576Z,84.15
2022-12-16T11:08:03.858Z,84.47
2022-12-16T11:09:03.906Z,84.05
2022-12-16T11:10:03.668Z,84.89
2022-12-16T11:11:03.629Z,84.57
2022-12-16T11:12:03.628Z,85.41
2022-12-16T11:13:03.939Z,84.89
2022-12-16T11:14:03.699Z,85.31
2022-12-16T11:15:28.142Z,84.71
2022-12-16T11:16:03.911Z,84.82
2022-12-16T11:17:04.259Z,85.83
2022-12-16T11:18:04.283Z,86.57
2022-12-16T11:19:04.155Z,87.05
2022-12-16T11:20:04.242Z,85.79
2022-12-16T11:21:09.788Z,86.60
2022-12-16T11:22:04.299Z,85.13
2022-12-16T11:23:04.586Z,85.02
2022-12-16T11:24:04.176Z,84.60
2022-12-16T11:25:04.612Z,83.86
2022-12-16T11:26:04.123Z,83.65
2022-12-16T11:27:04.637Z,83.34
2022-12-16T11:28:03.636Z,82.92
2022-12-16T11:29:03.834Z,84.49
2022-12-16T11:30:03.966Z,84.28
2022-12-16T11:31:03.639Z,83.86
2022-12-16T11:32:03.900Z,84.49
2022-12-16T11:33:04.159Z,85.82
2022-12-16T11:34:03.924Z,87.99
2022-12-16T11:35:03.947Z,87.91
2022-12-16T11:36:04.148Z,87.76
2022-12-16T11:37:04.171Z,87.83
2022-12-16T11:38:03.555Z,87.37
2022-12-16T11:39:03.670Z,84.61
2022-12-16T11:40:03.569Z,82.20
2022-12-16T11:41:03.075Z,81.32
2022-12-16T11:42:03.262Z,79.33
2022-12-16T11:43:10.511Z,78.74
2022-12-16T11:44:04.164Z,79.47
2022-12-16T11:45:03.993Z,81.78
2022-12-16T11:46:03.678Z,80.42
2022-12-16T11:47:04.327Z,81.85
2022-12-16T11:48:03.510Z,81.92
2022-12-16T11:49:03.280Z,80.76
2022-12-16T11:50:03.454Z,80.76
2022-12-16T11:51:03.037Z,81.67
2022-12-16T11:52:21.170Z,82.67
2022-12-16T11:53:04.033Z,81.73
2022-12-16T11:54:04.157Z,80.79
2022-12-16T11:55:04.033Z,80.16
2022-12-16T11:56:07.612Z,80.65
2022-12-16T11:57:03.885Z,80.20
2022-12-16T11:58:03.696Z,78.49
2022-12-16T11:59:03.372Z,77.14
2022-12-16T12:00:03.441Z,76.54
2022-12-16T12:01:03.743Z,76.75
2022-12-16T12:02:03.580Z,76.65
2022-12-16T12:03:04.506Z,76.54
2022-12-16T12:04:04.571Z,77.90
2022-12-16T12:05:04.476Z,78.59
2022-12-16T12:06:04.613Z,78.39
2022-12-16T12:07:04.401Z,77.41
2022-12-16T12:08:04.130Z,78.14
2022-12-16T12:09:04.361Z,77.20
2022-12-16T12:10:03.752Z,76.43
2022-12-16T12:11:04.156Z,76.43
2022-12-16T12:12:04.321Z,76.23
2022-12-16T12:13:03.951Z,76.75
2022-12-16T12:14:03.910Z,75.36
2022-12-16T12:15:03.872Z,75.15
2022-12-16T12:16:04.108Z,74.84
2022-12-16T12:17:03.958Z,75.57
2022-12-16T12:18:04.285Z,76.82
2022-12-16T12:19:04.274Z,76.82
2022-12-16T12:20:04.475Z,75.64
2022-12-16T12:21:04.053Z,75.22
2022-12-16T12:22:04.437Z,75.32
2022-12-16T12:23:04.217Z,75.92
2022-12-16T12:24:04.652Z,76.12
2022-12-16T12:25:04.179Z,75.29
2022-12-16T12:26:04.553Z,74.53
2022-12-16T12:27:04.625Z,74.74
2022-12-16T12:28:04.472Z,74.21
2022-12-16T12:29:04.323Z,73.59
2022-12-16T12:30:04.189Z,73.87
2022-12-16T12:31:04.502Z,74.39
2022-12-16T12:32:04.496Z,74.91
2022-12-16T12:33:04.213Z,74.46
2022-12-16T12:34:03.998Z,74.88
2022-12-16T12:35:04.194Z,75.71
2022-12-16T12:36:03.587Z,75.50
2022-12-16T12:37:03.724Z,74.04
2022-12-16T12:38:04.060Z,75.40
2022-12-16T12:39:04.549Z,75.98
2022-12-16T12:40:04.170Z,74.95
2022-12-16T12:41:04.342Z,76.16
2022-12-16T12:42:03.950Z,76.16
2022-12-16T12:43:03.735Z,72.45
2022-12-16T12:44:03.599Z,74.43
2022-12-16T12:45:03.767Z,75.95
2022-12-16T12:46:03.964Z,74.67
2022-12-16T12:47:04.358Z,74.36
2022-12-16T12:48:04.535Z,73.28
2022-12-16T12:49:04.356Z,72.66
2022-12-16T12:50:04.448Z,73.70
2022-12-16T12:51:04.530Z,75.46
2022-12-16T12:52:04.564Z,76.09
2022-12-16T12:53:04.047Z,76.61
2022-12-16T12:54:04.217Z,74.95
2022-12-16T12:55:03.657Z,74.08
2022-12-16T12:56:04.017Z,75.23
2022-12-16T12:57:03.675Z,76.06
2022-12-16T12:58:04.048Z,76.78
2022-12-16T12:59:03.945Z,75.23
2022-12-16T13:00:04.373Z,76.37
2022-12-16T13:01:04.310Z,75.12
2022-12-16T13:02:04.416Z,73.15
2022-12-16T13:03:05.304Z,69.55
2022-12-16T13:04:04.690Z,71.76
2022-12-16T13:05:04.690Z,75.46
2022-12-16T13:06:04.620Z,77.82
2022-12-16T13:07:04.715Z,77.47
2022-12-16T13:08:04.053Z,76.54
2022-12-16T13:09:04.140Z,76.50
2022-12-16T13:10:04.202Z,76.50
2022-12-16T13:11:04.475Z,73.36
2022-12-16T13:12:03.718Z,73.88
2022-12-16T13:13:04.676Z,74.91
2022-12-16T13:14:04.417Z,75.02
2022-12-16T13:15:04.723Z,75.22
2022-12-16T13:16:04.544Z,74.36
2022-12-16T13:17:04.288Z,73.11
2022-12-16T13:18:04.650Z,72.39